sensor_id;sensor_type;location;lat;lon;timestamp;P1;durP1;ratioP1;P2;durP2;ratioP2
48040;SDS011;33815;48.386;11.738;2022-10-17T00:01:03;4.75;;;3.60;;
48040;SDS011;33815;48.386;11.738;2022-10-17T00:03:29;3.53;;;3.22;;
48040;SDS011;33815;48.386;11.738;2022-10-17T00:05:55;7.03;;;3.40;;
48040;SDS011;33815;48.386;11.738;2022-10-17T00:08:20;10.40;;;4.20;;
48040;SDS011;33815;48.386;11.738;2022-10-17T00:10:54;6.00;;;4.13;;
48040;SDS011;33815;48.386;11.738;2022-10-17T00:13:24;6.18;;;3.80;;
48040;SDS011;33815;48.386;11.738;2022-10-17T00:15:50;7.13;;;4.28;;
48040;SDS011;33815;48.386;11.738;2022-10-17T00:18:15;4.85;;;3.80;;
48040;SDS011;33815;48.386;11.738;2022-10-17T00:20:41;10.45;;;4.10;;
48040;SDS011;33815;48.386;11.738;2022-10-17T00:23:06;4.00;;;3.58;;
48040;SDS011;33815;48.386;11.738;2022-10-17T00:25:31;5.33;;;3.90;;
48040;SDS011;33815;48.386;11.738;2022-10-17T00:27:56;8.13;;;3.75;;
48040;SDS011;33815;48.386;11.738;2022-10-17T00:30:22;4.82;;;3.90;;
48040;SDS011;33815;48.386;11.738;2022-10-17T00:32:47;6.05;;;4.25;;
48040;SDS011;33815;48.386;11.738;2022-10-17T00:35:12;4.22;;;3.60;;
48040;SDS011;33815;48.386;11.738;2022-10-17T00:37:38;13.27;;;3.80;;
48040;SDS011;33815;48.386;11.738;2022-10-17T00:40:03;4.53;;;3.50;;
48040;SDS011;33815;48.386;11.738;2022-10-17T00:42:30;11.38;;;4.53;;
48040;SDS011;33815;48.386;11.738;2022-10-17T00:44:59;4.27;;;3.57;;
48040;SDS011;33815;48.386;11.738;2022-10-17T00:47:25;7.07;;;3.70;;
48040;SDS011;33815;48.386;11.738;2022-10-17T00:49:50;5.28;;;2.97;;
48040;SDS011;33815;48.386;11.738;2022-10-17T00:52:22;22.95;;;4.47;;
48040;SDS011;33815;48.386;11.738;2022-10-17T00:54:52;4.88;;;3.60;;
48040;SDS011;33815;48.386;11.738;2022-10-17T00:57:22;4.18;;;3.60;;
48040;SDS011;33815;48.386;11.738;2022-10-17T00:59:49;8.13;;;3.35;;
48040;SDS011;33815;48.386;11.738;2022-10-17T01:02:18;7.57;;;4.00;;
48040;SDS011;33815;48.386;11.738;2022-10-17T01:04:46;6.38;;;3.90;;
48040;SDS011;33815;48.386;11.738;2022-10-17T01:07:14;8.15;;;4.32;;
48040;SDS011;33815;48.386;11.738;2022-10-17T01:09:39;4.72;;;4.28;;
48040;SDS011;33815;48.386;11.738;2022-10-17T01:12:11;4.88;;;3.70;;
48040;SDS011;33815;48.386;11.738;2022-10-17T01:31:24;6.47;;;3.78;;
48040;SDS011;33815;48.386;11.738;2022-10-17T01:34:02;11.48;;;3.80;;
48040;SDS011;33815;48.386;11.738;2022-10-17T01:39:26;3.88;;;3.35;;
48040;SDS011;33815;48.386;11.738;2022-10-17T01:45:00;6.68;;;3.55;;
48040;SDS011;33815;48.386;11.738;2022-10-17T01:47:32;4.07;;;3.55;;
48040;SDS011;33815;48.386;11.738;2022-10-17T01:50:03;10.25;;;4.25;;
48040;SDS011;33815;48.386;11.738;2022-10-17T01:52:37;7.60;;;4.47;;
48040;SDS011;33815;48.386;11.738;2022-10-17T01:55:15;9.98;;;4.43;;
48040;SDS011;33815;48.386;11.738;2022-10-17T01:57:47;8.52;;;4.13;;
48040;SDS011;33815;48.386;11.738;2022-10-17T02:00:16;6.05;;;3.78;;
48040;SDS011;33815;48.386;11.738;2022-10-17T02:02:45;7.90;;;4.70;;
48040;SDS011;33815;48.386;11.738;2022-10-17T02:05:13;10.80;;;5.22;;
48040;SDS011;33815;48.386;11.738;2022-10-17T02:07:41;9.25;;;4.63;;
48040;SDS011;33815;48.386;11.738;2022-10-17T02:10:09;6.38;;;4.60;;
48040;SDS011;33815;48.386;11.738;2022-10-17T02:12:44;12.15;;;4.95;;
48040;SDS011;33815;48.386;11.738;2022-10-17T02:15:27;8.70;;;4.20;;
48040;SDS011;33815;48.386;11.738;2022-10-17T02:18:27;7.22;;;4.50;;
48040;SDS011;33815;48.386;11.738;2022-10-17T02:24:12;7.28;;;4.68;;
48040;SDS011;33815;48.386;11.738;2022-10-17T02:26:56;9.27;;;4.65;;
48040;SDS011;33815;48.386;11.738;2022-10-17T02:30:28;11.90;;;5.25;;
48040;SDS011;33815;48.386;11.738;2022-10-17T02:32:43;5.97;;;4.68;;
48040;SDS011;33815;48.386;11.738;2022-10-17T02:35:12;5.47;;;4.15;;
48040;SDS011;33815;48.386;11.738;2022-10-17T02:37:39;7.10;;;4.50;;
48040;SDS011;33815;48.386;11.738;2022-10-17T02:40:07;6.20;;;4.55;;
48040;SDS011;33815;48.386;11.738;2022-10-17T02:42:38;11.77;;;5.50;;
48040;SDS011;33815;48.386;11.738;2022-10-17T02:45:07;8.73;;;5.35;;
48040;SDS011;33815;48.386;11.738;2022-10-17T02:50:11;10.85;;;6.30;;
48040;SDS011;33815;48.386;11.738;2022-10-17T02:55:28;9.52;;;5.30;;
48040;SDS011;33815;48.386;11.738;2022-10-17T02:58:01;8.55;;;5.40;;
48040;SDS011;33815;48.386;11.738;2022-10-17T03:00:31;9.40;;;5.53;;
48040;SDS011;33815;48.386;11.738;2022-10-17T03:02:56;7.25;;;4.82;;
48040;SDS011;33815;48.386;11.738;2022-10-17T03:05:23;8.98;;;4.90;;
48040;SDS011;33815;48.386;11.738;2022-10-17T03:07:49;7.25;;;4.60;;
48040;SDS011;33815;48.386;11.738;2022-10-17T03:10:15;8.10;;;5.20;;
48040;SDS011;33815;48.386;11.738;2022-10-17T03:12:41;6.75;;;5.22;;
48040;SDS011;33815;48.386;11.738;2022-10-17T03:15:06;6.95;;;4.90;;
48040;SDS011;33815;48.386;11.738;2022-10-17T03:17:32;5.45;;;4.78;;
48040;SDS011;33815;48.386;11.738;2022-10-17T03:19:57;6.28;;;3.90;;
48040;SDS011;33815;48.386;11.738;2022-10-17T03:22:23;6.28;;;4.68;;
48040;SDS011;33815;48.386;11.738;2022-10-17T03:24:48;3.85;;;3.45;;
48040;SDS011;33815;48.386;11.738;2022-10-17T03:27:13;4.23;;;3.63;;
48040;SDS011;33815;48.386;11.738;2022-10-17T03:29:38;3.78;;;3.40;;
48040;SDS011;33815;48.386;11.738;2022-10-17T03:32:04;3.85;;;3.45;;
48040;SDS011;33815;48.386;11.738;2022-10-17T03:34:29;7.32;;;3.70;;
48040;SDS011;33815;48.386;11.738;2022-10-17T03:36:54;4.43;;;4.03;;
48040;SDS011;33815;48.386;11.738;2022-10-17T03:39:20;5.38;;;3.53;;
48040;SDS011;33815;48.386;11.738;2022-10-17T03:41:45;3.73;;;3.37;;
48040;SDS011;33815;48.386;11.738;2022-10-17T03:44:10;2.90;;;2.70;;
48040;SDS011;33815;48.386;11.738;2022-10-17T03:46:36;4.38;;;3.67;;
48040;SDS011;33815;48.386;11.738;2022-10-17T03:49:01;4.13;;;3.55;;
48040;SDS011;33815;48.386;11.738;2022-10-17T03:51:26;3.25;;;2.95;;
48040;SDS011;33815;48.386;11.738;2022-10-17T03:53:52;4.13;;;3.00;;
48040;SDS011;33815;48.386;11.738;2022-10-17T03:56:18;3.78;;;3.35;;
48040;SDS011;33815;48.386;11.738;2022-10-17T03:58:45;5.72;;;3.20;;
48040;SDS011;33815;48.386;11.738;2022-10-17T04:01:11;4.30;;;3.60;;
48040;SDS011;33815;48.386;11.738;2022-10-17T04:03:38;3.38;;;3.08;;
48040;SDS011;33815;48.386;11.738;2022-10-17T04:06:04;5.00;;;3.15;;
48040;SDS011;33815;48.386;11.738;2022-10-17T04:08:30;3.67;;;3.30;;
48040;SDS011;33815;48.386;11.738;2022-10-17T04:10:59;3.95;;;3.38;;
48040;SDS011;33815;48.386;11.738;2022-10-17T04:13:29;6.32;;;3.53;;
48040;SDS011;33815;48.386;11.738;2022-10-17T04:16:02;3.83;;;3.42;;
48040;SDS011;33815;48.386;11.738;2022-10-17T04:18:29;3.90;;;3.53;;
48040;SDS011;33815;48.386;11.738;2022-10-17T04:20:55;6.53;;;3.38;;
48040;SDS011;33815;48.386;11.738;2022-10-17T04:23:20;2.90;;;2.70;;
48040;SDS011;33815;48.386;11.738;2022-10-17T04:25:46;3.47;;;3.03;;
48040;SDS011;33815;48.386;11.738;2022-10-17T04:28:12;4.28;;;3.35;;
48040;SDS011;33815;48.386;11.738;2022-10-17T04:30:37;3.15;;;2.85;;
48040;SDS011;33815;48.386;11.738;2022-10-17T04:33:03;3.30;;;3.00;;
48040;SDS011;33815;48.386;11.738;2022-10-17T04:35:28;3.30;;;3.10;;
48040;SDS011;33815;48.386;11.738;2022-10-17T04:37:54;4.43;;;2.85;;
48040;SDS011;33815;48.386;11.738;2022-10-17T04:40:19;3.67;;;3.22;;
48040;SDS011;33815;48.386;11.738;2022-10-17T04:42:45;4.45;;;3.20;;
48040;SDS011;33815;48.386;11.738;2022-10-17T04:45:10;5.78;;;3.33;;
48040;SDS011;33815;48.386;11.738;2022-10-17T04:47:36;3.65;;;3.30;;
48040;SDS011;33815;48.386;11.738;2022-10-17T04:50:02;3.55;;;3.25;;
48040;SDS011;33815;48.386;11.738;2022-10-17T04:52:28;4.97;;;3.55;;
48040;SDS011;33815;48.386;11.738;2022-10-17T04:54:53;3.95;;;3.05;;
48040;SDS011;33815;48.386;11.738;2022-10-17T04:57:19;4.53;;;3.63;;
48040;SDS011;33815;48.386;11.738;2022-10-17T04:59:44;7.20;;;3.78;;
48040;SDS011;33815;48.386;11.738;2022-10-17T05:02:10;12.60;;;4.47;;
48040;SDS011;33815;48.386;11.738;2022-10-17T05:04:35;8.40;;;4.63;;
48040;SDS011;33815;48.386;11.738;2022-10-17T05:07:00;16.30;;;5.38;;
48040;SDS011;33815;48.386;11.738;2022-10-17T05:09:26;15.55;;;7.18;;
48040;SDS011;33815;48.386;11.738;2022-10-17T05:11:51;13.15;;;8.82;;
48040;SDS011;33815;48.386;11.738;2022-10-17T05:14:17;18.70;;;9.10;;
48040;SDS011;33815;48.386;11.738;2022-10-17T05:16:42;18.65;;;10.30;;
48040;SDS011;33815;48.386;11.738;2022-10-17T05:19:07;22.90;;;11.70;;
48040;SDS011;33815;48.386;11.738;2022-10-17T05:21:32;19.33;;;12.95;;
48040;SDS011;33815;48.386;11.738;2022-10-17T05:23:58;32.15;;;15.40;;
48040;SDS011;33815;48.386;11.738;2022-10-17T05:26:23;25.75;;;15.68;;
48040;SDS011;33815;48.386;11.738;2022-10-17T05:28:50;28.33;;;14.32;;
48040;SDS011;33815;48.386;11.738;2022-10-17T05:31:18;28.88;;;15.52;;
48040;SDS011;33815;48.386;11.738;2022-10-17T05:33:44;21.55;;;11.07;;
48040;SDS011;33815;48.386;11.738;2022-10-17T05:36:10;18.55;;;10.25;;
48040;SDS011;33815;48.386;11.738;2022-10-17T05:38:35;15.90;;;10.27;;
48040;SDS011;33815;48.386;11.738;2022-10-17T05:41:02;15.68;;;9.05;;
48040;SDS011;33815;48.386;11.738;2022-10-17T05:43:29;9.40;;;6.57;;
48040;SDS011;33815;48.386;11.738;2022-10-17T05:45:55;9.20;;;6.30;;
48040;SDS011;33815;48.386;11.738;2022-10-17T05:48:20;10.55;;;6.10;;
48040;SDS011;33815;48.386;11.738;2022-10-17T05:50:46;9.27;;;5.95;;
48040;SDS011;33815;48.386;11.738;2022-10-17T05:53:12;6.97;;;5.32;;
48040;SDS011;33815;48.386;11.738;2022-10-17T05:55:38;8.60;;;5.35;;
48040;SDS011;33815;48.386;11.738;2022-10-17T05:58:03;8.65;;;4.72;;
48040;SDS011;33815;48.386;11.738;2022-10-17T06:00:28;7.57;;;4.55;;
48040;SDS011;33815;48.386;11.738;2022-10-17T06:02:54;10.63;;;5.25;;
48040;SDS011;33815;48.386;11.738;2022-10-17T06:05:19;8.20;;;4.35;;
48040;SDS011;33815;48.386;11.738;2022-10-17T06:07:45;6.97;;;4.50;;
48040;SDS011;33815;48.386;11.738;2022-10-17T06:10:10;8.18;;;5.00;;
48040;SDS011;33815;48.386;11.738;2022-10-17T06:12:37;7.88;;;4.65;;
48040;SDS011;33815;48.386;11.738;2022-10-17T06:15:03;10.60;;;5.45;;
48040;SDS011;33815;48.386;11.738;2022-10-17T06:17:28;10.43;;;4.25;;
48040;SDS011;33815;48.386;11.738;2022-10-17T06:19:54;10.48;;;5.47;;
48040;SDS011;33815;48.386;11.738;2022-10-17T06:22:20;7.00;;;4.82;;
48040;SDS011;33815;48.386;11.738;2022-10-17T06:24:45;11.80;;;5.65;;
48040;SDS011;33815;48.386;11.738;2022-10-17T06:27:10;8.17;;;5.03;;
48040;SDS011;33815;48.386;11.738;2022-10-17T06:29:35;5.82;;;4.35;;
48040;SDS011;33815;48.386;11.738;2022-10-17T06:32:01;8.13;;;4.57;;
48040;SDS011;33815;48.386;11.738;2022-10-17T06:34:26;7.78;;;4.18;;
48040;SDS011;33815;48.386;11.738;2022-10-17T06:36:51;8.40;;;5.32;;
48040;SDS011;33815;48.386;11.738;2022-10-17T06:39:17;8.23;;;5.28;;
48040;SDS011;33815;48.386;11.738;2022-10-17T06:41:42;8.93;;;5.75;;
48040;SDS011;33815;48.386;11.738;2022-10-17T06:44:08;8.75;;;6.38;;
48040;SDS011;33815;48.386;11.738;2022-10-17T06:46:35;7.97;;;6.05;;
48040;SDS011;33815;48.386;11.738;2022-10-17T06:49:01;9.95;;;6.05;;
48040;SDS011;33815;48.386;11.738;2022-10-17T06:51:26;11.60;;;7.20;;
48040;SDS011;33815;48.386;11.738;2022-10-17T06:53:51;17.13;;;9.00;;
48040;SDS011;33815;48.386;11.738;2022-10-17T06:56:17;10.43;;;8.23;;
48040;SDS011;33815;48.386;11.738;2022-10-17T06:58:43;14.68;;;9.23;;
48040;SDS011;33815;48.386;11.738;2022-10-17T07:01:10;12.55;;;8.48;;
48040;SDS011;33815;48.386;11.738;2022-10-17T07:03:37;10.55;;;7.53;;
48040;SDS011;33815;48.386;11.738;2022-10-17T07:06:03;12.48;;;8.23;;
48040;SDS011;33815;48.386;11.738;2022-10-17T07:08:29;10.50;;;6.90;;
48040;SDS011;33815;48.386;11.738;2022-10-17T07:10:54;9.50;;;7.60;;
48040;SDS011;33815;48.386;11.738;2022-10-17T07:13:20;10.98;;;6.22;;
48040;SDS011;33815;48.386;11.738;2022-10-17T07:15:45;7.07;;;5.18;;
48040;SDS011;33815;48.386;11.738;2022-10-17T07:18:11;6.93;;;4.95;;
48040;SDS011;33815;48.386;11.738;2022-10-17T07:20:36;8.77;;;6.20;;
48040;SDS011;33815;48.386;11.738;2022-10-17T07:23:02;8.18;;;4.97;;
48040;SDS011;33815;48.386;11.738;2022-10-17T07:25:27;5.45;;;4.55;;
48040;SDS011;33815;48.386;11.738;2022-10-17T07:27:53;5.30;;;4.25;;
48040;SDS011;33815;48.386;11.738;2022-10-17T07:30:18;5.57;;;4.70;;
48040;SDS011;33815;48.386;11.738;2022-10-17T07:32:44;4.32;;;3.75;;
48040;SDS011;33815;48.386;11.738;2022-10-17T07:35:10;4.85;;;4.15;;
48040;SDS011;33815;48.386;11.738;2022-10-17T07:37:36;6.40;;;4.35;;
48040;SDS011;33815;48.386;11.738;2022-10-17T07:40:02;7.18;;;4.15;;
48040;SDS011;33815;48.386;11.738;2022-10-17T07:42:28;5.20;;;3.92;;
48040;SDS011;33815;48.386;11.738;2022-10-17T07:44:54;4.15;;;3.75;;
48040;SDS011;33815;48.386;11.738;2022-10-17T07:47:19;4.32;;;3.92;;
48040;SDS011;33815;48.386;11.738;2022-10-17T07:49:45;3.75;;;3.45;;
48040;SDS011;33815;48.386;11.738;2022-10-17T07:52:11;4.30;;;3.28;;
48040;SDS011;33815;48.386;11.738;2022-10-17T07:54:37;5.25;;;3.22;;
48040;SDS011;33815;48.386;11.738;2022-10-17T07:57:02;4.13;;;3.50;;
48040;SDS011;33815;48.386;11.738;2022-10-17T07:59:28;3.75;;;3.40;;
48040;SDS011;33815;48.386;11.738;2022-10-17T08:01:56;4.82;;;3.50;;
48040;SDS011;33815;48.386;11.738;2022-10-17T08:04:22;4.85;;;3.58;;
48040;SDS011;33815;48.386;11.738;2022-10-17T08:06:48;5.35;;;4.10;;
48040;SDS011;33815;48.386;11.738;2022-10-17T08:09:13;4.22;;;3.33;;
48040;SDS011;33815;48.386;11.738;2022-10-17T08:11:39;6.13;;;3.70;;
48040;SDS011;33815;48.386;11.738;2022-10-17T08:14:04;5.35;;;3.30;;
48040;SDS011;33815;48.386;11.738;2022-10-17T08:16:29;4.30;;;3.67;;
48040;SDS011;33815;48.386;11.738;2022-10-17T08:18:55;3.83;;;2.85;;
48040;SDS011;33815;48.386;11.738;2022-10-17T08:21:20;4.95;;;3.00;;
48040;SDS011;33815;48.386;11.738;2022-10-17T08:23:46;3.72;;;3.00;;
48040;SDS011;33815;48.386;11.738;2022-10-17T08:26:11;3.40;;;3.10;;
48040;SDS011;33815;48.386;11.738;2022-10-17T08:28:40;3.85;;;2.88;;
48040;SDS011;33815;48.386;11.738;2022-10-17T08:31:10;5.20;;;3.42;;
48040;SDS011;33815;48.386;11.738;2022-10-17T08:33:37;3.50;;;3.20;;
48040;SDS011;33815;48.386;11.738;2022-10-17T08:36:03;3.40;;;3.10;;
48040;SDS011;33815;48.386;11.738;2022-10-17T08:38:30;7.60;;;3.47;;
48040;SDS011;33815;48.386;11.738;2022-10-17T08:40:56;5.35;;;3.95;;
48040;SDS011;33815;48.386;11.738;2022-10-17T08:46:05;7.38;;;4.32;;
48040;SDS011;33815;48.386;11.738;2022-10-17T08:48:33;6.97;;;3.65;;
48040;SDS011;33815;48.386;11.738;2022-10-17T08:51:20;4.53;;;3.55;;
48040;SDS011;33815;48.386;11.738;2022-10-17T08:54:05;4.10;;;3.33;;
48040;SDS011;33815;48.386;11.738;2022-10-17T08:56:42;4.75;;;3.95;;
48040;SDS011;33815;48.386;11.738;2022-10-17T08:59:12;2.97;;;2.55;;
48040;SDS011;33815;48.386;11.738;2022-10-17T09:12:48;2.73;;;2.47;;
48040;SDS011;33815;48.386;11.738;2022-10-17T09:18:26;3.60;;;2.45;;
48040;SDS011;33815;48.386;11.738;2022-10-17T09:20:56;5.68;;;3.08;;
48040;SDS011;33815;48.386;11.738;2022-10-17T09:23:30;2.67;;;2.45;;
48040;SDS011;33815;48.386;11.738;2022-10-17T09:26:02;3.10;;;2.83;;
48040;SDS011;33815;48.386;11.738;2022-10-17T09:28:32;3.00;;;2.60;;
48040;SDS011;33815;48.386;11.738;2022-10-17T09:31:04;3.58;;;2.55;;
48040;SDS011;33815;48.386;11.738;2022-10-17T09:33:40;2.72;;;2.53;;
48040;SDS011;33815;48.386;11.738;2022-10-17T09:36:15;4.90;;;2.53;;
48040;SDS011;33815;48.386;11.738;2022-10-17T09:38:44;3.05;;;2.63;;
48040;SDS011;33815;48.386;11.738;2022-10-17T09:41:47;3.78;;;2.58;;
48040;SDS011;33815;48.386;11.738;2022-10-17T09:52:10;3.03;;;2.05;;
48040;SDS011;33815;48.386;11.738;2022-10-17T09:57:08;2.88;;;2.33;;
48040;SDS011;33815;48.386;11.738;2022-10-17T09:59:35;2.00;;;1.85;;
48040;SDS011;33815;48.386;11.738;2022-10-17T10:04:56;3.00;;;2.03;;
48040;SDS011;33815;48.386;11.738;2022-10-17T10:07:28;3.10;;;1.73;;
48040;SDS011;33815;48.386;11.738;2022-10-17T10:09:55;2.50;;;1.55;;
48040;SDS011;33815;48.386;11.738;2022-10-17T10:12:24;7.85;;;2.00;;
48040;SDS011;33815;48.386;11.738;2022-10-17T10:14:51;2.10;;;1.77;;
48040;SDS011;33815;48.386;11.738;2022-10-17T10:17:33;2.42;;;1.63;;
48040;SDS011;33815;48.386;11.738;2022-10-17T10:20:02;3.42;;;1.80;;
48040;SDS011;33815;48.386;11.738;2022-10-17T10:23:02;3.20;;;2.07;;
48040;SDS011;33815;48.386;11.738;2022-10-17T10:25:56;3.15;;;2.20;;
48040;SDS011;33815;48.386;11.738;2022-10-17T10:28:27;1.95;;;1.77;;
48040;SDS011;33815;48.386;11.738;2022-10-17T10:30:55;2.00;;;1.83;;
48040;SDS011;33815;48.386;11.738;2022-10-17T10:33:24;1.83;;;1.73;;
48040;SDS011;33815;48.386;11.738;2022-10-17T10:35:56;3.03;;;1.77;;
48040;SDS011;33815;48.386;11.738;2022-10-17T10:38:25;1.98;;;1.77;;
48040;SDS011;33815;48.386;11.738;2022-10-17T10:40:52;2.88;;;2.10;;
48040;SDS011;33815;48.386;11.738;2022-10-17T10:46:00;2.97;;;1.98;;
48040;SDS011;33815;48.386;11.738;2022-10-17T10:48:31;2.40;;;1.67;;
48040;SDS011;33815;48.386;11.738;2022-10-17T10:51:11;3.72;;;1.92;;
48040;SDS011;33815;48.386;11.738;2022-10-17T10:53:42;3.30;;;1.88;;
48040;SDS011;33815;48.386;11.738;2022-10-17T10:56:51;3.38;;;1.60;;
48040;SDS011;33815;48.386;11.738;2022-10-17T10:59:19;3.85;;;1.95;;
48040;SDS011;33815;48.386;11.738;2022-10-17T11:01:54;2.22;;;1.80;;
48040;SDS011;33815;48.386;11.738;2022-10-17T11:06:56;2.58;;;1.60;;
48040;SDS011;33815;48.386;11.738;2022-10-17T11:12:16;1.65;;;1.33;;
48040;SDS011;33815;48.386;11.738;2022-10-17T11:17:20;1.70;;;1.60;;
48040;SDS011;33815;48.386;11.738;2022-10-17T11:20:09;2.35;;;1.73;;
48040;SDS011;33815;48.386;11.738;2022-10-17T11:22:37;2.55;;;1.60;;
48040;SDS011;33815;48.386;11.738;2022-10-17T11:27:53;2.35;;;1.42;;
48040;SDS011;33815;48.386;11.738;2022-10-17T11:30:19;2.10;;;1.20;;
48040;SDS011;33815;48.386;11.738;2022-10-17T11:32:50;1.80;;;1.50;;
48040;SDS011;33815;48.386;11.738;2022-10-17T11:35:25;1.17;;;1.08;;
48040;SDS011;33815;48.386;11.738;2022-10-17T11:38:01;1.17;;;1.10;;
48040;SDS011;33815;48.386;11.738;2022-10-17T11:40:37;1.15;;;0.82;;
48040;SDS011;33815;48.386;11.738;2022-10-17T11:45:52;3.40;;;2.50;;
48040;SDS011;33815;48.386;11.738;2022-10-17T11:48:24;1.73;;;1.63;;
48040;SDS011;33815;48.386;11.738;2022-10-17T11:51:08;3.00;;;1.15;;
48040;SDS011;33815;48.386;11.738;2022-10-17T11:54:01;1.52;;;1.40;;
48040;SDS011;33815;48.386;11.738;2022-10-17T12:02:30;1.85;;;1.17;;
48040;SDS011;33815;48.386;11.738;2022-10-17T12:05:13;1.98;;;1.13;;
48040;SDS011;33815;48.386;11.738;2022-10-17T12:07:58;1.40;;;1.30;;
48040;SDS011;33815;48.386;11.738;2022-10-17T12:10:35;1.42;;;1.10;;
48040;SDS011;33815;48.386;11.738;2022-10-17T12:15:53;1.35;;;1.20;;
48040;SDS011;33815;48.386;11.738;2022-10-17T12:18:19;1.20;;;1.10;;
48040;SDS011;33815;48.386;11.738;2022-10-17T12:20:55;1.50;;;1.20;;
48040;SDS011;33815;48.386;11.738;2022-10-17T12:23:24;1.95;;;1.02;;
48040;SDS011;33815;48.386;11.738;2022-10-17T12:25:58;2.80;;;1.45;;
48040;SDS011;33815;48.386;11.738;2022-10-17T12:30:54;2.42;;;1.20;;
48040;SDS011;33815;48.386;11.738;2022-10-17T12:33:27;1.25;;;1.15;;
48040;SDS011;33815;48.386;11.738;2022-10-17T12:38:46;1.60;;;1.17;;
48040;SDS011;33815;48.386;11.738;2022-10-17T13:00:12;3.17;;;0.98;;
48040;SDS011;33815;48.386;11.738;2022-10-17T13:02:42;1.27;;;1.27;;
48040;SDS011;33815;48.386;11.738;2022-10-17T13:05:42;1.08;;;0.98;;
48040;SDS011;33815;48.386;11.738;2022-10-17T13:08:03;3.88;;;1.00;;
48040;SDS011;33815;48.386;11.738;2022-10-17T13:10:32;1.55;;;1.08;;
48040;SDS011;33815;48.386;11.738;2022-10-17T13:13:06;1.92;;;1.20;;
48040;SDS011;33815;48.386;11.738;2022-10-17T13:15:38;1.88;;;1.30;;
48040;SDS011;33815;48.386;11.738;2022-10-17T13:18:03;1.38;;;1.27;;
48040;SDS011;33815;48.386;11.738;2022-10-17T13:20:30;1.40;;;1.30;;
48040;SDS011;33815;48.386;11.738;2022-10-17T13:22:56;2.55;;;1.20;;
48040;SDS011;33815;48.386;11.738;2022-10-17T13:25:22;1.25;;;1.13;;
48040;SDS011;33815;48.386;11.738;2022-10-17T13:27:48;1.60;;;1.50;;
48040;SDS011;33815;48.386;11.738;2022-10-17T13:30:25;1.85;;;1.40;;
48040;SDS011;33815;48.386;11.738;2022-10-17T13:32:50;3.05;;;1.10;;
48040;SDS011;33815;48.386;11.738;2022-10-17T13:35:21;1.67;;;1.33;;
48040;SDS011;33815;48.386;11.738;2022-10-17T13:37:49;1.45;;;1.35;;
48040;SDS011;33815;48.386;11.738;2022-10-17T13:40:17;1.95;;;1.23;;
48040;SDS011;33815;48.386;11.738;2022-10-17T13:42:46;1.65;;;1.10;;
48040;SDS011;33815;48.386;11.738;2022-10-17T13:45:32;1.55;;;1.30;;
48040;SDS011;33815;48.386;11.738;2022-10-17T13:47:59;1.63;;;1.40;;
48040;SDS011;33815;48.386;11.738;2022-10-17T13:53:18;1.63;;;1.20;;
48040;SDS011;33815;48.386;11.738;2022-10-17T13:56:23;1.50;;;1.40;;
48040;SDS011;33815;48.386;11.738;2022-10-17T13:58:50;1.88;;;1.25;;
48040;SDS011;33815;48.386;11.738;2022-10-17T14:01:21;3.60;;;1.40;;
48040;SDS011;33815;48.386;11.738;2022-10-17T14:03:48;1.63;;;1.40;;
48040;SDS011;33815;48.386;11.738;2022-10-17T14:08:57;4.63;;;1.00;;
48040;SDS011;33815;48.386;11.738;2022-10-17T14:11:42;2.20;;;1.20;;
48040;SDS011;33815;48.386;11.738;2022-10-17T14:14:16;2.35;;;1.60;;
48040;SDS011;33815;48.386;11.738;2022-10-17T14:16:46;4.80;;;1.52;;
48040;SDS011;33815;48.386;11.738;2022-10-17T14:19:19;1.58;;;1.27;;
48040;SDS011;33815;48.386;11.738;2022-10-17T14:21:53;1.42;;;1.33;;
48040;SDS011;33815;48.386;11.738;2022-10-17T14:26:52;1.53;;;1.40;;
48040;SDS011;33815;48.386;11.738;2022-10-17T14:29:21;1.73;;;1.50;;
48040;SDS011;33815;48.386;11.738;2022-10-17T14:31:58;2.85;;;1.70;;
48040;SDS011;33815;48.386;11.738;2022-10-17T14:34:28;6.90;;;1.50;;
48040;SDS011;33815;48.386;11.738;2022-10-17T14:36:56;2.88;;;1.42;;
48040;SDS011;33815;48.386;11.738;2022-10-17T14:39:23;1.13;;;1.02;;
48040;SDS011;33815;48.386;11.738;2022-10-17T14:41:50;2.25;;;1.45;;
48040;SDS011;33815;48.386;11.738;2022-10-17T14:44:18;1.83;;;1.60;;
48040;SDS011;33815;48.386;11.738;2022-10-17T14:46:44;1.88;;;1.52;;
48040;SDS011;33815;48.386;11.738;2022-10-17T14:49:15;1.63;;;1.52;;
48040;SDS011;33815;48.386;11.738;2022-10-17T14:54:51;2.35;;;1.40;;
48040;SDS011;33815;48.386;11.738;2022-10-17T14:57:18;1.60;;;1.50;;
48040;SDS011;33815;48.386;11.738;2022-10-17T14:59:48;2.42;;;1.30;;
48040;SDS011;33815;48.386;11.738;2022-10-17T15:02:14;1.92;;;1.60;;
48040;SDS011;33815;48.386;11.738;2022-10-17T15:04:39;1.75;;;1.65;;
48040;SDS011;33815;48.386;11.738;2022-10-17T15:07:05;1.85;;;1.58;;
48040;SDS011;33815;48.386;11.738;2022-10-17T15:09:30;3.63;;;1.48;;
48040;SDS011;33815;48.386;11.738;2022-10-17T15:11:58;1.90;;;1.13;;
48040;SDS011;33815;48.386;11.738;2022-10-17T15:14:28;6.03;;;1.67;;
48040;SDS011;33815;48.386;11.738;2022-10-17T15:16:53;1.30;;;1.20;;
48040;SDS011;33815;48.386;11.738;2022-10-17T15:19:18;1.93;;;1.50;;
48040;SDS011;33815;48.386;11.738;2022-10-17T15:21:43;2.30;;;1.20;;
48040;SDS011;33815;48.386;11.738;2022-10-17T15:24:09;2.13;;;1.70;;
48040;SDS011;33815;48.386;11.738;2022-10-17T15:26:34;1.67;;;1.57;;
48040;SDS011;33815;48.386;11.738;2022-10-17T15:29:00;1.80;;;1.33;;
48040;SDS011;33815;48.386;11.738;2022-10-17T15:31:25;2.45;;;1.48;;
48040;SDS011;33815;48.386;11.738;2022-10-17T15:33:53;1.75;;;1.63;;
48040;SDS011;33815;48.386;11.738;2022-10-17T15:36:20;1.80;;;1.52;;
48040;SDS011;33815;48.386;11.738;2022-10-17T15:38:50;1.92;;;1.25;;
48040;SDS011;33815;48.386;11.738;2022-10-17T15:41:17;1.98;;;1.30;;
48040;SDS011;33815;48.386;11.738;2022-10-17T15:43:43;3.58;;;1.75;;
48040;SDS011;33815;48.386;11.738;2022-10-17T15:46:12;3.90;;;1.90;;
48040;SDS011;33815;48.386;11.738;2022-10-17T15:48:47;5.88;;;2.00;;
48040;SDS011;33815;48.386;11.738;2022-10-17T15:51:14;2.83;;;1.85;;
48040;SDS011;33815;48.386;11.738;2022-10-17T15:53:39;2.20;;;1.63;;
48040;SDS011;33815;48.386;11.738;2022-10-17T15:56:05;3.53;;;1.90;;
48040;SDS011;33815;48.386;11.738;2022-10-17T15:58:36;4.30;;;2.05;;
48040;SDS011;33815;48.386;11.738;2022-10-17T16:01:04;3.08;;;1.48;;
48040;SDS011;33815;48.386;11.738;2022-10-17T16:03:30;1.70;;;1.60;;
48040;SDS011;33815;48.386;11.738;2022-10-17T16:05:56;1.75;;;1.40;;
48040;SDS011;33815;48.386;11.738;2022-10-17T16:08:21;4.22;;;1.73;;
48040;SDS011;33815;48.386;11.738;2022-10-17T16:10:47;2.20;;;2.00;;
48040;SDS011;33815;48.386;11.738;2022-10-17T16:13:20;5.28;;;1.77;;
48040;SDS011;33815;48.386;11.738;2022-10-17T16:15:47;2.72;;;1.65;;
48040;SDS011;33815;48.386;11.738;2022-10-17T16:18:13;2.22;;;1.98;;
48040;SDS011;33815;48.386;11.738;2022-10-17T16:20:38;4.22;;;1.75;;
48040;SDS011;33815;48.386;11.738;2022-10-17T16:23:04;1.83;;;1.73;;
48040;SDS011;33815;48.386;11.738;2022-10-17T16:25:30;2.05;;;1.85;;
48040;SDS011;33815;48.386;11.738;2022-10-17T16:27:56;3.50;;;2.22;;
48040;SDS011;33815;48.386;11.738;2022-10-17T16:30:23;6.20;;;2.80;;
48040;SDS011;33815;48.386;11.738;2022-10-17T16:32:51;6.70;;;4.07;;
48040;SDS011;33815;48.386;11.738;2022-10-17T16:35:19;7.45;;;4.68;;
48040;SDS011;33815;48.386;11.738;2022-10-17T16:37:46;9.80;;;4.82;;
48040;SDS011;33815;48.386;11.738;2022-10-17T16:40:12;6.68;;;2.80;;
48040;SDS011;33815;48.386;11.738;2022-10-17T16:42:38;2.10;;;1.80;;
48040;SDS011;33815;48.386;11.738;2022-10-17T16:45:03;1.70;;;1.60;;